Time;durP1;ratioP1;P1;durP2;ratioP2;P2;SDS_P1;SDS_P2;PMS_P1;PMS_P2;Temp;Humidity;BMP_temperature;BMP_pressure;BME280_temperature;BME280_humidity;BME280_pressure;Samples;Min_cycle;Max_cycle;Signal;HPM_P1;HPM_P2
2022/10/09 00:01:48;;;;;;;12.30;11.40;;;;;;;9.91;97.86;93205.72;5069563;28;20180;-74
2022/10/09 00:04:13;;;;;;;11.97;11.20;;;;;;;9.64;98.56;93176.47;5068620;28;20218;-75
2022/10/09 00:06:39;;;;;;;11.43;10.73;;;;;;;9.41;97.89;93143.84;5069576;28;20231;-75
2022/10/09 00:09:04;;;;;;;11.67;10.93;;;;;;;9.86;97.81;93203.09;5069147;28;20248;-75
2022/10/09 00:11:32;;;;;;;12.60;11.63;;;;;;;9.75;98.76;93193.69;5069776;28;20215;-76
2022/10/09 00:13:58;;;;;;;11.30;10.50;;;;;;;9.50;98.57;93160.53;5069049;28;20233;-76
2022/10/09 00:16:24;;;;;;;11.27;10.67;;;;;;;9.42;98.82;93155.03;5069021;28;20196;-76
2022/10/09 00:18:50;;;;;;;11.20;10.40;;;;;;;9.52;98.66;93170.72;5069099;28;20237;-75
2022/10/09 00:21:20;;;;;;;11.70;10.77;;;;;;;9.69;99.04;93184.28;5069774;28;20181;-75
2022/10/09 00:23:46;;;;;;;10.97;10.37;;;;;;;9.35;98.52;93133.66;5068004;28;20226;-76
2022/10/09 00:26:12;;;;;;;10.77;10.03;;;;;;;9.72;98.64;93181.97;5069545;28;20221;-75
2022/10/09 00:28:37;;;;;;;12.67;11.87;;;;;;;9.30;98.40;93131.03;5069205;28;20237;-75
2022/10/09 00:31:05;;;;;;;12.57;11.43;;;;;;;9.66;98.69;93187.41;5069045;28;20188;-76
2022/10/09 00:33:30;;;;;;;12.30;11.30;;;;;;;9.58;99.26;93186.09;5068190;28;20232;-76
2022/10/09 00:35:55;;;;;;;11.53;10.77;;;;;;;9.54;99.14;93163.41;5068984;28;20244;-75
2022/10/09 00:38:21;;;;;;;12.10;11.00;;;;;;;9.42;98.82;93139.41;5069041;28;20225;-75
2022/10/09 00:40:46;;;;;;;11.80;10.90;;;;;;;9.54;98.83;93169.41;5069569;28;20209;-77
2022/10/09 00:43:17;;;;;;;11.63;10.93;;;;;;;9.03;99.32;93086.97;5069105;28;20231;-76
2022/10/09 00:45:54;;;;;;;12.50;11.67;;;;;;;9.37;99.87;93144.63;5070079;28;20213;-75
2022/10/09 00:48:21;;;;;;;12.87;11.93;;;;;;;9.39;99.99;93161.56;5072123;28;20231;-76
2022/10/09 00:50:54;;;;;;;13.07;12.17;;;;;;;9.45;100.00;93159.72;5073294;28;20193;-74
2022/10/09 00:53:23;;;;;;;11.13;10.33;;;;;;;9.57;99.97;93162.91;5072031;28;20229;-75
2022/10/09 00:55:48;;;;;;;12.10;11.27;;;;;;;9.47;99.60;93147.22;5072770;28;20189;-75
2022/10/09 00:58:14;;;;;;;12.50;11.63;;;;;;;9.50;99.37;93151.94;5071491;28;20285;-75
2022/10/09 01:00:40;;;;;;;11.97;11.17;;;;;;;9.56;99.30;93156.09;5073044;28;20180;-75
2022/10/09 01:03:06;;;;;;;11.83;11.03;;;;;;;9.56;99.95;93150.88;5072367;28;20248;-76
2022/10/09 01:05:37;;;;;;;12.50;11.60;;;;;;;9.57;99.99;93155.84;5072480;28;20201;-75
2022/10/09 01:08:08;;;;;;;12.27;11.40;;;;;;;9.54;100.00;93147.78;5071382;28;20233;-76
2022/10/09 01:10:49;;;;;;;11.67;10.90;;;;;;;9.26;100.00;93130.78;5072784;28;20199;-75
2022/10/09 01:13:42;;;;;;;12.10;11.30;;;;;;;9.38;100.00;93133.16;5071976;28;20225;-75
2022/10/09 01:16:28;;;;;;;12.50;11.57;;;;;;;9.27;100.00;93137.56;5072527;28;20229;-75
2022/10/09 01:18:58;;;;;;;11.07;10.47;;;;;;;9.44;100.00;93147.75;5071274;28;20213;-75
2022/10/09 01:21:26;;;;;;;12.43;11.63;;;;;;;9.46;100.00;93150.88;5088421;28;20186;-76
2022/10/09 01:24:10;;;;;;;12.20;11.30;;;;;;;9.44;100.00;93163.38;5071341;28;20241;-75
2022/10/09 01:26:51;;;;;;;13.00;12.07;;;;;;;9.42;100.00;93160.25;5072315;28;20220;-75
2022/10/09 01:29:19;;;;;;;12.60;11.70;;;;;;;9.44;100.00;93166.00;5088141;28;20219;-76
2022/10/09 01:31:47;;;;;;;12.40;11.60;;;;;;;9.48;100.00;93159.22;5071876;28;20189;-76
2022/10/09 01:34:15;;;;;;;12.70;11.90;;;;;;;9.32;100.00;93123.75;5071152;28;20214;-76
2022/10/09 01:36:42;;;;;;;11.93;11.07;;;;;;;9.11;100.00;93112.50;5088240;28;20215;-76
2022/10/09 01:39:11;;;;;;;13.27;12.37;;;;;;;9.43;100.00;93154.78;5071875;28;20234;-75
2022/10/09 01:41:37;;;;;;;11.17;10.47;;;;;;;9.32;100.00;93134.19;5072716;28;20190;-75
2022/10/09 01:44:02;;;;;;;12.57;11.33;;;;;;;9.40;100.00;93151.94;5070586;28;20224;-75
2022/10/09 01:46:30;;;;;;;12.73;11.93;;;;;;;9.32;100.00;93144.59;5072074;28;20236;-75
2022/10/09 01:49:01;;;;;;;11.60;10.80;;;;;;;9.39;100.00;93156.34;5070911;28;20228;-75
2022/10/09 01:51:37;;;;;;;12.87;11.80;;;;;;;9.06;100.00;93109.09;5071530;28;20189;-75
2022/10/09 01:54:07;;;;;;;12.13;11.00;;;;;;;9.07;100.00;93132.31;5070431;28;20233;-75
2022/10/09 01:56:36;;;;;;;13.07;11.87;;;;;;;9.31;100.00;93150.84;5071881;28;20218;-77
2022/10/09 01:59:10;;;;;;;12.70;11.80;;;;;;;9.19;100.00;93126.84;5071213;28;20837;-76
2022/10/09 02:01:38;;;;;;;12.23;11.33;;;;;;;9.35;100.00;93155.28;5071327;28;20177;-75
2022/10/09 02:04:07;;;;;;;11.87;11.13;;;;;;;9.10;100.00;93125.78;5070923;28;20217;-76
2022/10/09 02:06:34;;;;;;;13.40;12.07;;;;;;;9.14;100.00;93132.84;5071435;28;20233;-76
2022/10/09 02:09:01;;;;;;;12.47;11.60;;;;;;;9.25;100.00;93167.50;5069779;28;20225;-76
2022/10/09 02:11:30;;;;;;;13.30;11.23;;;;;;;8.81;100.00;93101.22;5071044;28;20195;-75
2022/10/09 02:13:57;;;;;;;11.80;10.87;;;;;;;8.88;100.00;93114.78;5085870;28;20332;-75
2022/10/09 02:16:41;;;;;;;12.50;11.37;;;;;;;9.20;100.00;93173.47;5086993;28;20181;-75
2022/10/09 02:19:18;;;;;;;13.73;12.77;;;;;;;9.18;100.00;93170.34;5070025;28;20250;-76
2022/10/09 02:21:54;;;;;;;10.73;10.13;;;;;;;9.18;100.00;93180.00;5070985;28;20205;-76
2022/10/09 02:24:21;;;;;;;12.67;11.70;;;;;;;8.92;100.00;93134.84;5070197;28;20253;-76
2022/10/09 02:26:47;;;;;;;13.37;12.17;;;;;;;8.94;100.00;93139.78;5070430;28;20209;-76
2022/10/09 02:29:14;;;;;;;12.57;11.63;;;;;;;9.14;100.00;93178.94;5068614;28;20202;-76
2022/10/09 02:31:41;;;;;;;11.53;10.77;;;;;;;9.30;100.00;93188.38;5071717;28;20216;-76
2022/10/09 02:34:10;;;;;;;12.27;11.37;;;;;;;8.81;100.00;93119.44;5068367;28;20214;-77
2022/10/09 02:36:37;;;;;;;12.90;12.07;;;;;;;8.68;100.00;93088.69;5071643;28;20193;-76
2022/10/09 02:39:04;;;;;;;13.30;12.40;;;;;;;9.21;100.00;93187.28;5070289;28;20213;-76
2022/10/09 02:41:29;;;;;;;13.47;12.57;;;;;;;9.21;100.00;93179.47;5071053;28;20253;-76
2022/10/09 02:43:55;;;;;;;12.40;11.40;;;;;;;8.97;100.00;93149.69;5070608;28;20244;-76
2022/10/09 02:46:21;;;;;;;11.73;11.03;;;;;;;9.03;100.00;93174.72;5070913;28;20221;-76
2022/10/09 02:48:46;;;;;;;12.57;11.67;;;;;;;9.14;100.00;93169.28;5070551;28;20225;-76
2022/10/09 02:51:12;;;;;;;12.73;11.93;;;;;;;9.16;100.00;93184.66;5071437;28;20200;-75
2022/10/09 02:53:38;;;;;;;14.40;13.13;;;;;;;9.15;100.00;93188.31;5070581;28;20240;-76
2022/10/09 02:56:03;;;;;;;11.47;10.80;;;;;;;9.15;100.00;93172.69;5070769;28;20173;-77
2022/10/09 02:58:30;;;;;;;13.50;12.60;;;;;;;9.02;100.00;93178.38;5070533;28;20225;-76
2022/10/09 03:00:56;;;;;;;13.93;13.03;;;;;;;9.12;100.00;93186.22;5070776;28;20193;-76
2022/10/09 03:03:21;;;;;;;13.47;12.30;;;;;;;8.88;100.00;93161.63;5070073;28;20296;-77
2022/10/09 03:05:47;;;;;;;13.07;12.10;;;;;;;9.11;100.00;93189.84;5069649;28;20298;-76
2022/10/09 03:08:13;;;;;;;12.70;11.90;;;;;;;8.87;100.00;93153.03;5069942;28;20308;-76
2022/10/09 03:10:39;;;;;;;13.73;12.57;;;;;;;9.12;100.00;93187.00;5070845;28;20169;-76
2022/10/09 03:13:06;;;;;;;12.57;11.60;;;;;;;9.11;100.00;93189.84;5070235;28;20237;-76
2022/10/09 03:15:36;;;;;;;12.93;11.90;;;;;;;9.10;100.00;93185.69;5070513;28;20194;-76
2022/10/09 03:18:01;;;;;;;16.80;12.03;;;;;;;8.95;100.00;93190.84;5070223;28;20217;-75
2022/10/09 03:20:29;;;;;;;12.53;11.60;;;;;;;8.94;100.00;93186.66;5070570;28;20200;-73
2022/10/09 03:22:55;;;;;;;12.60;11.53;;;;;;;9.00;100.00;93190.84;5069566;28;20243;-75
2022/10/09 03:25:20;;;;;;;12.13;11.27;;;;;;;8.87;100.00;93155.63;5070032;28;20208;-75
2022/10/09 03:27:46;;;;;;;12.87;11.80;;;;;;;9.10;100.00;93201.31;5069853;28;20866;-74
2022/10/09 03:30:12;;;;;;;11.60;10.70;;;;;;;8.74;100.00;93134.50;5069284;28;20264;-75
2022/10/09 03:32:37;;;;;;;12.23;11.20;;;;;;;8.97;100.00;93173.94;5069205;28;20843;-75
2022/10/09 03:35:03;;;;;;;12.00;11.20;;;;;;;9.13;100.00;93183.38;5068594;28;20181;-75
2022/10/09 03:37:28;;;;;;;12.03;11.00;;;;;;;8.88;100.00;93159.03;5070245;28;20193;-75
2022/10/09 03:39:54;;;;;;;12.10;11.23;;;;;;;9.09;100.00;93203.13;5068861;28;20283;-75
2022/10/09 03:42:19;;;;;;;12.03;11.13;;;;;;;9.10;100.00;93198.72;5070287;28;20855;-75
2022/10/09 03:44:44;;;;;;;12.83;11.83;;;;;;;8.96;100.00;93195.00;5069843;28;20252;-73
2022/10/09 03:47:10;;;;;;;12.87;12.07;;;;;;;9.04;100.00;93208.31;5070013;28;20285;-75
2022/10/09 03:49:35;;;;;;;11.37;10.63;;;;;;;9.00;100.00;93206.47;5069849;28;20225;-75
2022/10/09 03:52:00;;;;;;;12.13;11.20;;;;;;;8.95;100.00;93196.81;5070679;28;20227;-75
2022/10/09 03:54:26;;;;;;;13.17;11.83;;;;;;;8.90;100.00;93188.22;5069950;28;20239;-75
2022/10/09 03:56:51;;;;;;;13.07;12.30;;;;;;;8.82;100.00;93188.69;5068649;28;20193;-75
2022/10/09 03:59:16;;;;;;;13.07;12.03;;;;;;;8.94;100.00;93208.28;5069575;28;20221;-75
2022/10/09 04:01:42;;;;;;;12.87;11.80;;;;;;;8.93;100.00;93205.94;5070005;28;20204;-75
2022/10/09 04:04:07;;;;;;;13.27;12.17;;;;;;;8.89;100.00;93208.25;5069014;28;20216;-76
2022/10/09 04:06:32;;;;;;;14.23;13.07;;;;;;;8.98;100.00;93213.78;5069545;28;20202;-75
2022/10/09 04:09:00;;;;;;;13.30;12.40;;;;;;;8.86;100.00;93210.56;5069275;28;20264;-74
2022/10/09 04:11:25;;;;;;;13.47;12.57;;;;;;;8.92;100.00;93207.75;5068570;28;20189;-73
2022/10/09 04:13:50;;;;;;;11.70;10.83;;;;;;;8.81;100.00;93210.56;5069466;28;20228;-75
2022/10/09 04:16:16;;;;;;;12.73;11.83;;;;;;;8.79;100.00;93204.81;5069503;28;20220;-75
2022/10/09 04:18:43;;;;;;;11.80;11.00;;;;;;;8.73;100.00;93192.81;5069110;28;20230;-75
2022/10/09 04:21:09;;;;;;;11.67;10.80;;;;;;;8.76;100.00;93202.72;5068940;28;20193;-74
2022/10/09 04:23:34;;;;;;;11.80;11.00;;;;;;;8.78;100.00;93201.44;5068822;28;20225;-75
2022/10/09 04:26:00;;;;;;;11.87;11.03;;;;;;;8.77;100.00;93206.88;5068821;28;20225;-75
2022/10/09 04:28:27;;;;;;;12.37;11.37;;;;;;;8.68;100.00;93201.38;5068996;28;20292;-75
2022/10/09 04:30:53;;;;;;;11.50;10.87;;;;;;;8.64;100.00;93195.09;5068992;28;20186;-75
2022/10/09 04:33:19;;;;;;;11.97;11.20;;;;;;;8.72;100.00;93217.25;5069023;28;20258;-74
2022/10/09 04:35:45;;;;;;;12.57;11.67;;;;;;;8.68;100.00;93205.81;5069224;28;20700;-75
2022/10/09 04:38:11;;;;;;;12.57;11.17;;;;;;;8.85;100.00;93217.63;5068474;28;20227;-74
2022/10/09 04:40:36;;;;;;;12.57;11.73;;;;;;;8.68;100.00;93211.81;5066346;28;20253;-76
2022/10/09 04:43:02;;;;;;;12.17;11.33;;;;;;;8.63;100.00;93182.34;5067935;28;20252;-75
2022/10/09 04:45:27;;;;;;;12.93;12.03;;;;;;;8.62;100.00;93206.81;5067165;28;20269;-74
2022/10/09 04:47:53;;;;;;;10.60;9.90;;;;;;;8.70;100.00;93219.34;5067250;28;20263;-75
2022/10/09 04:50:18;;;;;;;12.77;11.87;;;;;;;8.67;100.00;93219.84;5068582;28;20204;-76
2022/10/09 04:52:43;;;;;;;11.97;11.20;;;;;;;8.81;100.00;93226.19;5068109;28;20189;-75
2022/10/09 04:55:09;;;;;;;11.50;10.80;;;;;;;8.90;100.00;93209.03;5068025;28;20181;-74
2022/10/09 04:57:34;;;;;;;12.37;11.60;;;;;;;8.88;100.00;93213.72;5067282;28;20174;-75
2022/10/09 05:00:00;;;;;;;11.27;10.57;;;;;;;8.88;100.00;93216.31;5067887;28;20239;-76
2022/10/09 05:02:25;;;;;;;11.20;10.50;;;;;;;8.92;100.00;93233.78;5066302;28;20322;-75
2022/10/09 05:04:50;;;;;;;11.17;10.47;;;;;;;8.89;100.00;93225.69;5066292;28;20240;-75
2022/10/09 05:07:16;;;;;;;10.10;9.57;;;;;;;8.89;100.00;93223.88;5067508;28;20205;-77
2022/10/09 05:09:41;;;;;;;12.13;11.33;;;;;;;9.05;100.00;93232.53;5065578;28;20236;-74
2022/10/09 05:12:06;;;;;;;11.57;10.87;;;;;;;8.99;100.00;93216.13;5068268;28;20200;-76
2022/10/09 05:14:32;;;;;;;10.97;10.27;;;;;;;9.18;100.00;93230.25;5067560;28;20247;-73
2022/10/09 05:17:01;;;;;;;11.03;10.03;;;;;;;9.17;100.00;93236.50;5067511;28;20185;-73
2022/10/09 05:19:27;;;;;;;12.20;11.33;;;;;;;9.29;100.00;93234.47;5067941;28;20248;-72
2022/10/09 05:21:53;;;;;;;11.67;10.90;;;;;;;9.22;100.00;93233.16;5069387;28;20224;-73
2022/10/09 05:24:19;;;;;;;12.90;11.63;;;;;;;9.40;100.00;93237.91;5068014;28;20217;-73
2022/10/09 05:26:44;;;;;;;12.07;11.27;;;;;;;9.50;100.00;93236.13;5067345;28;20247;-75
2022/10/09 05:29:09;;;;;;;12.47;11.77;;;;;;;9.54;100.00;93244.22;5068036;28;20225;-75
2022/10/09 05:31:36;;;;;;;10.73;10.10;;;;;;;9.52;100.00;93228.84;5069141;28;20201;-75
2022/10/09 05:34:02;;;;;;;10.97;10.23;;;;;;;9.74;100.00;93245.03;5071618;28;20229;-75
2022/10/09 05:36:28;;;;;;;14.07;12.97;;;;;;;9.95;100.00;93251.09;5070308;28;20186;-74
2022/10/09 05:38:54;;;;;;;13.00;12.13;;;;;;;9.93;100.00;93250.53;5069554;28;20294;-70
2022/10/09 05:41:19;;;;;;;12.40;11.47;;;;;;;10.11;100.00;93251.91;5072026;28;20178;-73
2022/10/09 05:43:47;;;;;;;12.50;11.53;;;;;;;10.17;100.00;93264.72;5069526;28;20216;-75
2022/10/09 05:46:15;;;;;;;15.03;13.83;;;;;;;10.50;100.00;93260.81;5067969;28;20198;-75
2022/10/09 05:48:43;;;;;;;16.50;15.00;;;;;;;10.64;98.53;93260.03;5084943;28;20252;-72
2022/10/09 05:51:13;;;;;;;14.07;13.07;;;;;;;10.66;98.74;93263.16;5070831;28;20193;-72
2022/10/09 05:53:41;;;;;;;15.07;13.77;;;;;;;10.91;97.09;93257.88;5070381;28;20289;-74
2022/10/09 05:56:13;;;;;;;15.03;13.63;;;;;;;11.17;94.82;93269.09;5071172;28;20194;-74
2022/10/09 05:58:39;;;;;;;15.73;14.43;;;;;;;11.01;94.90;93252.66;5086746;28;20228;-74
2022/10/09 06:01:05;;;;;;;14.43;13.23;;;;;;;11.14;95.05;93273.00;5070536;28;20217;-75
2022/10/09 06:03:30;;;;;;;14.90;13.80;;;;;;;11.27;93.32;93261.97;5069880;28;20226;-75
2022/10/09 06:06:00;;;;;;;14.57;13.37;;;;;;;11.29;93.82;93275.59;5069284;28;20261;-74
2022/10/09 06:08:26;;;;;;;16.70;14.57;;;;;;;11.34;94.30;93269.56;5069159;28;20240;-75
2022/10/09 06:10:51;;;;;;;14.80;13.53;;;;;;;11.50;93.70;93285.97;5070348;28;20181;-72
2022/10/09 06:13:16;;;;;;;14.00;12.80;;;;;;;11.54;93.99;93285.16;5061815;28;20261;-74
2022/10/09 06:15:51;;;;;;;14.87;13.53;;;;;;;11.65;93.29;93281.50;5050339;28;20206;-73
2022/10/09 06:18:16;;;;;;;14.57;13.37;;;;;;;11.80;93.08;93291.13;5055912;28;21091;-75
2022/10/09 06:20:55;;;;;;;15.80;14.53;;;;;;;11.90;92.99;93301.53;5071127;28;20182;-76
2022/10/09 06:23:21;;;;;;;13.53;12.33;;;;;;;11.97;92.64;93302.03;5064172;28;20256;-76
2022/10/09 06:25:51;;;;;;;15.60;14.13;;;;;;;11.76;93.87;93295.31;5049623;28;20265;-74
2022/10/09 06:28:16;;;;;;;15.27;13.83;;;;;;;11.84;94.88;93289.53;5050285;28;20249;-76
2022/10/09 06:30:41;;;;;;;14.17;13.00;;;;;;;12.11;93.00;93298.53;5050409;28;20190;-75
2022/10/09 06:33:07;;;;;;;15.83;14.53;;;;;;;12.37;91.42;93317.50;5049462;28;20229;-74
2022/10/09 06:35:35;;;;;;;16.73;14.03;;;;;;;12.30;92.66;93317.78;5050363;28;20220;-75
2022/10/09 06:38:00;;;;;;;16.97;15.27;;;;;;;12.40;91.85;93316.94;5064269;28;20237;-75
2022/10/09 06:40:26;;;;;;;15.13;13.83;;;;;;;12.33;93.37;93316.47;5049383;28;20194;-76
2022/10/09 06:42:51;;;;;;;16.10;14.57;;;;;;;12.62;91.36;93318.09;5047634;28;20247;-74
2022/10/09 06:45:16;;;;;;;18.00;16.20;;;;;;;12.48;90.81;93314.53;5039887;28;20216;-73
2022/10/09 06:47:42;;;;;;;17.07;15.67;;;;;;;12.72;90.36;93332.97;5041753;28;20190;-72
2022/10/09 06:50:08;;;;;;;18.53;16.60;;;;;;;12.63;90.96;93339.84;5049923;28;20258;-72
2022/10/09 06:52:33;;;;;;;17.60;15.70;;;;;;;12.74;90.71;93334.25;5050257;28;20194;-75
2022/10/09 06:54:58;;;;;;;17.87;16.13;;;;;;;12.49;90.06;93299.59;5049473;28;20308;-75
2022/10/09 06:57:24;;;;;;;17.27;15.80;;;;;;;12.69;90.15;93326.44;5050130;28;20541;-79
2022/10/09 06:59:50;;;;;;;17.10;15.30;;;;;;;12.64;89.67;93321.22;5049121;28;20225;-75
2022/10/09 07:02:16;;;;;;;17.10;15.60;;;;;;;12.71;89.51;93326.16;5048976;28;20209;-76
2022/10/09 07:04:41;;;;;;;17.27;15.77;;;;;;;12.24;91.50;93318.09;5043185;28;20226;-74
2022/10/09 07:07:06;;;;;;;17.37;15.60;;;;;;;12.31;91.88;93323.81;5042116;28;20245;-76
2022/10/09 07:09:32;;;;;;;17.43;15.23;;;;;;;12.53;89.34;93332.81;5044290;28;20263;-73
2022/10/09 07:11:57;;;;;;;18.23;16.53;;;;;;;12.68;88.79;93330.09;5041355;28;20201;-73
2022/10/09 07:14:23;;;;;;;18.40;16.57;;;;;;;12.67;88.12;93325.13;5062746;28;20240;-75
2022/10/09 07:16:50;;;;;;;17.10;15.60;;;;;;;12.53;90.76;93339.91;5070004;28;20197;-74
2022/10/09 07:19:17;;;;;;;18.00;16.30;;;;;;;12.50;90.02;93320.28;5067369;28;20228;-73
2022/10/09 07:21:45;;;;;;;18.13;16.37;;;;;;;12.51;91.13;93339.41;5068361;28;20261;-73
2022/10/09 07:24:11;;;;;;;18.23;16.47;;;;;;;12.49;89.62;93338.88;5068057;28;20256;-74
2022/10/09 07:26:39;;;;;;;18.33;16.57;;;;;;;12.86;86.79;93320.78;5069540;28;20250;-74
2022/10/09 07:29:07;;;;;;;18.87;16.20;;;;;;;13.22;85.64;93343.06;5055012;28;20225;-74
2022/10/09 07:31:32;;;;;;;17.43;15.83;;;;;;;13.15;85.38;93329.50;5046988;28;20248;-75
2022/10/09 07:33:57;;;;;;;19.70;17.33;;;;;;;13.18;86.60;93349.94;5045833;28;20226;-75
2022/10/09 07:36:24;;;;;;;19.77;17.70;;;;;;;13.34;86.02;93351.34;5048345;28;20190;-74
2022/10/09 07:38:51;;;;;;;17.67;15.80;;;;;;;13.42;86.07;93355.97;5047423;28;20246;-74
2022/10/09 07:41:17;;;;;;;17.80;15.37;;;;;;;13.62;84.11;93353.16;5047744;28;20268;-74
2022/10/09 07:43:42;;;;;;;18.90;15.63;;;;;;;13.17;85.81;93329.22;5048625;28;20226;-75
2022/10/09 07:46:16;;;;;;;19.10;16.43;;;;;;;13.86;83.47;93361.84;5048470;28;20217;-74
2022/10/09 07:48:42;;;;;;;19.77;17.70;;;;;;;13.92;81.56;93360.72;5055855;28;20225;-73
2022/10/09 07:51:30;;;;;;;19.17;17.23;;;;;;;13.78;82.73;93365.06;5068270;28;20188;-72
2022/10/09 07:53:57;;;;;;;17.90;16.30;;;;;;;13.77;84.13;93363.50;5067279;28;20233;-71
2022/10/09 07:56:26;;;;;;;16.27;14.77;;;;;;;14.06;82.37;93366.84;5067014;28;20196;-71
2022/10/09 07:58:54;;;;;;;17.80;15.90;;;;;;;14.04;82.63;93358.47;5056219;28;20233;-71
2022/10/09 08:01:21;;;;;;;18.73;16.73;;;;;;;13.87;83.06;93367.84;5047697;28;20178;-71
2022/10/09 08:03:47;;;;;;;19.80;17.07;;;;;;;13.96;83.91;93369.56;5047877;28;20222;-71
2022/10/09 08:06:13;;;;;;;19.10;16.73;;;;;;;13.98;84.76;93370.09;5049812;28;20212;-72
2022/10/09 08:08:38;;;;;;;19.93;16.43;;;;;;;14.04;83.85;93363.72;5049248;28;20241;-72
2022/10/09 08:11:12;;;;;;;18.87;16.97;;;;;;;14.38;81.83;93358.34;5049347;28;20244;-70
2022/10/09 08:13:38;;;;;;;18.63;16.83;;;;;;;14.44;81.34;93351.94;5057950;28;20240;-74
2022/10/09 08:16:04;;;;;;;17.87;15.97;;;;;;;14.47;81.27;93360.03;5067199;28;20189;-73
2022/10/09 08:18:29;;;;;;;16.67;15.17;;;;;;;14.95;80.64;93357.25;5069020;28;20236;-73
2022/10/09 08:20:59;;;;;;;17.57;15.87;;;;;;;15.00;78.92;93365.06;5069324;28;20189;-73
2022/10/09 08:23:25;;;;;;;15.27;13.63;;;;;;;15.47;78.40;93362.22;5058388;28;20293;-74
2022/10/09 08:25:50;;;;;;;16.93;15.47;;;;;;;15.81;76.16;93344.22;5042579;28;20206;-74
2022/10/09 08:28:15;;;;;;;15.23;13.83;;;;;;;15.89;75.64;93346.19;5043816;28;20249;-77
2022/10/09 08:30:41;;;;;;;14.93;13.37;;;;;;;15.75;77.07;93321.69;5054867;28;20190;-74
2022/10/09 08:33:06;;;;;;;12.90;11.90;;;;;;;15.92;75.97;93356.13;5052254;28;20214;-74
2022/10/09 08:35:32;;;;;;;12.23;11.03;;;;;;;15.83;73.25;93348.13;5065289;28;20257;-74
2022/10/09 08:37:57;;;;;;;12.50;11.37;;;;;;;15.79;72.88;93367.44;5068389;28;20229;-74
2022/10/09 08:40:33;;;;;;;11.60;10.90;;;;;;;15.83;72.83;93368.41;5068795;28;20223;-75
2022/10/09 08:43:14;;;;;;;11.53;10.37;;;;;;;15.90;73.52;93368.81;5063018;28;20229;-74
2022/10/09 08:45:42;;;;;;;11.77;10.77;;;;;;;15.87;74.19;93341.22;5040658;28;20205;-74
2022/10/09 08:48:13;;;;;;;11.47;10.57;;;;;;;15.97;72.42;93363.91;5041734;28;20253;-74
2022/10/09 08:50:45;;;;;;;12.17;11.37;;;;;;;16.03;73.01;93357.50;5048248;28;20186;-75
2022/10/09 08:53:27;;;;;;;12.80;11.80;;;;;;;15.87;72.35;93343.84;5047733;28;20241;-74
2022/10/09 08:55:57;;;;;;;11.47;10.57;;;;;;;16.11;71.73;93351.53;5038365;28;20257;-74
2022/10/09 08:58:32;;;;;;;11.57;10.60;;;;;;;16.14;72.36;93347.53;5043742;28;20281;-74
2022/10/09 09:01:38;;;;;;;13.07;11.83;;;;;;;16.48;72.01;93340.00;5047607;28;20189;-74
2022/10/09 09:04:31;;;;;;;13.20;12.10;;;;;;;16.24;71.93;93337.56;5042265;28;20221;-75
2022/10/09 09:07:34;;;;;;;11.97;11.17;;;;;;;16.78;70.98;93331.44;5042133;28;20274;-74
2022/10/09 09:10:15;;;;;;;13.03;12.13;;;;;;;16.88;69.96;93342.53;5066846;28;20217;-74
2022/10/09 09:12:52;;;;;;;12.13;11.23;;;;;;;16.94;69.60;93330.78;5069990;28;20204;-74
2022/10/09 09:15:24;;;;;;;12.40;11.20;;;;;;;16.81;71.26;93346.66;5050305;28;20186;-74
2022/10/09 09:17:58;;;;;;;12.60;11.50;;;;;;;17.09;68.41;93348.88;5052391;28;20198;-74
2022/10/09 09:20:24;;;;;;;12.30;11.03;;;;;;;16.82;70.66;93338.44;5072791;28;20185;-74
2022/10/09 09:22:49;;;;;;;12.00;11.00;;;;;;;17.01;69.93;93336.41;5072173;28;20204;-74
2022/10/09 09:25:28;;;;;;;12.00;11.20;;;;;;;17.00;69.07;93348.03;5072346;28;20182;-75
2022/10/09 09:28:01;;;;;;;12.10;10.87;;;;;;;17.22;68.96;93342.78;5071197;28;20228;-74
2022/10/09 09:30:57;;;;;;;12.03;11.23;;;;;;;17.20;69.20;93350.19;5070454;28;20200;-75
2022/10/09 09:33:29;;;;;;;12.57;11.57;;;;;;;17.23;68.54;93354.88;5062818;28;20240;-74
2022/10/09 09:36:10;;;;;;;11.00;10.30;;;;;;;17.45;69.03;93352.25;5070098;28;20170;-74
2022/10/09 09:38:36;;;;;;;12.60;11.70;;;;;;;17.23;69.04;93344.31;5071822;28;20236;-74
2022/10/09 09:41:03;;;;;;;11.63;10.73;;;;;;;17.62;67.52;93351.56;5070684;28;20190;-74
2022/10/09 09:43:29;;;;;;;13.20;12.00;;;;;;;17.53;68.24;93346.25;5070478;28;20233;-74
2022/10/09 09:45:56;;;;;;;13.00;11.70;;;;;;;17.51;66.92;93353.69;5071947;28;20213;-74
2022/10/09 09:48:39;;;;;;;11.73;10.83;;;;;;;17.27;67.91;93353.22;5071495;28;20236;-74
2022/10/09 09:51:31;;;;;;;12.63;11.50;;;;;;;17.50;66.83;93352.13;5071617;28;20186;-74
2022/10/09 09:54:00;;;;;;;12.30;11.40;;;;;;;17.31;67.93;93356.81;5071653;28;20232;-74
2022/10/09 09:56:38;;;;;;;11.63;10.83;;;;;;;17.53;68.77;93358.66;5071741;28;20191;-74
2022/10/09 09:59:05;;;;;;;11.83;10.83;;;;;;;17.84;65.66;93353.41;5070551;28;20221;-74
2022/10/09 10:01:31;;;;;;;10.70;10.10;;;;;;;17.57;65.93;93359.63;5072077;28;20257;-74
2022/10/09 10:04:02;;;;;;;11.87;11.00;;;;;;;17.46;67.16;93360.97;5071503;28;20229;-73
2022/10/09 10:06:29;;;;;;;11.60;10.53;;;;;;;17.45;67.16;93360.19;5071693;28;20213;-74
2022/10/09 10:09:15;;;;;;;11.40;10.60;;;;;;;17.62;67.72;93358.72;5070210;28;20241;-74
2022/10/09 10:11:56;;;;;;;10.73;9.93;;;;;;;17.51;64.92;93318.56;5071674;28;20215;-73
2022/10/09 10:14:22;;;;;;;11.03;10.23;;;;;;;17.49;65.52;93345.28;5070461;28;20225;-75
2022/10/09 10:16:50;;;;;;;11.27;10.57;;;;;;;17.72;65.70;93355.81;5071671;28;20193;-73
2022/10/09 10:19:37;;;;;;;11.47;10.60;;;;;;;17.58;66.51;93361.97;5068893;28;20224;-74
2022/10/09 10:22:04;;;;;;;11.33;10.53;;;;;;;17.66;66.69;93357.81;5071891;28;20257;-73
2022/10/09 10:24:34;;;;;;;10.97;10.13;;;;;;;17.71;66.07;93360.34;5071269;28;20229;-74
2022/10/09 10:27:19;;;;;;;11.13;10.40;;;;;;;17.80;64.98;93347.16;5071258;28;20264;-74
2022/10/09 10:29:46;;;;;;;10.53;9.63;;;;;;;17.73;66.65;93347.56;5070419;28;20214;-73
2022/10/09 10:32:20;;;;;;;11.57;10.83;;;;;;;17.93;65.35;93354.97;5070150;28;20188;-73
2022/10/09 10:34:52;;;;;;;10.30;9.70;;;;;;;18.00;64.96;93346.59;5071197;28;20248;-73
2022/10/09 10:37:49;;;;;;;11.50;10.40;;;;;;;17.87;64.71;93318.44;5071504;28;20774;-74
2022/10/09 10:40:27;;;;;;;11.43;10.60;;;;;;;18.14;63.30;93347.28;5049849;28;20210;-74
2022/10/09 10:42:55;;;;;;;10.93;10.13;;;;;;;18.32;63.54;93344.38;5048848;28;20286;-73
2022/10/09 10:45:32;;;;;;;11.03;10.23;;;;;;;18.27;63.02;93349.03;5050962;28;20182;-74
2022/10/09 10:48:00;;;;;;;10.67;10.07;;;;;;;18.18;61.71;93343.72;5047993;28;20291;-73
2022/10/09 10:50:29;;;;;;;9.80;9.10;;;;;;;18.44;61.57;93338.53;5045379;28;20174;-73
2022/10/09 10:53:01;;;;;;;10.87;10.13;;;;;;;18.49;59.92;93341.03;5043861;28;20234;-74
2022/10/09 10:55:43;;;;;;;10.33;9.57;;;;;;;18.36;60.44;93326.81;5049814;28;20297;-73
2022/10/09 10:58:18;;;;;;;9.93;9.27;;;;;;;18.16;60.27;93276.41;5054463;28;20236;-74
2022/10/09 11:00:58;;;;;;;10.73;10.03;;;;;;;18.50;59.78;93313.50;5070679;28;20192;-74
2022/10/09 11:03:38;;;;;;;11.23;10.37;;;;;;;18.52;60.86;93311.31;5069671;28;20256;-73
2022/10/09 11:06:11;;;;;;;11.00;10.23;;;;;;;18.82;59.11;93316.47;5070345;28;20221;-74
2022/10/09 11:08:58;;;;;;;10.37;9.70;;;;;;;18.67;57.53;93316.16;5069360;28;20229;-73
2022/10/09 11:11:26;;;;;;;9.53;9.00;;;;;;;18.78;57.75;93318.19;5070486;28;20190;-75
2022/10/09 11:14:13;;;;;;;10.67;10.07;;;;;;;18.57;58.80;93313.78;5070063;28;20237;-72
2022/10/09 11:16:59;;;;;;;11.00;10.10;;;;;;;18.71;56.42;93311.78;5070764;28;20190;-73
2022/10/09 11:19:28;;;;;;;10.53;9.67;;;;;;;18.61;57.99;93310.25;5069891;28;20272;-74
2022/10/09 11:21:59;;;;;;;9.77;9.27;;;;;;;18.75;55.98;93305.59;5070741;28;20191;-74
2022/10/09 11:24:28;;;;;;;9.80;9.00;;;;;;;18.62;56.90;93305.72;5085368;28;20233;-74
2022/10/09 11:27:19;;;;;;;10.40;9.80;;;;;;;18.78;57.71;93304.16;5070555;28;20214;-72
2022/10/09 11:30:09;;;;;;;11.03;10.23;;;;;;;18.87;56.60;93297.00;5069392;28;20232;-74